Time;durP1;ratioP1;P1;durP2;ratioP2;P2;SDS_P1;SDS_P2;PMS_P1;PMS_P2;Temp;Humidity;BMP_temperature;BMP_pressure;BME280_temperature;BME280_humidity;BME280_pressure;Samples;Min_cycle;Max_cycle;Signal;HPM_P1;HPM_P2
2023/10/30 00:01:20;;;;;;;0.63;0.20;;;;;;;6.72;100.00;99084.28;5010866;28;20049;-69
2023/10/30 00:03:45;;;;;;;0.88;0.20;;;;;;;6.75;100.00;99091.88;5010681;28;20560;-69
2023/10/30 00:06:11;;;;;;;0.85;0.20;;;;;;;6.55;100.00;99073.31;5025902;28;20030;-69
2023/10/30 00:08:36;;;;;;;0.95;0.20;;;;;;;6.59;100.00;99085.22;5009638;28;20028;-70
2023/10/30 00:11:02;;;;;;;0.32;0.20;;;;;;;6.71;100.00;99096.03;5010998;28;20038;-69
2023/10/30 00:13:27;;;;;;;0.15;0.15;;;;;;;6.83;100.00;99095.13;5025731;28;20061;-69
2023/10/30 00:15:54;;;;;;;0.70;0.20;;;;;;;6.78;100.00;99094.13;5026125;28;20521;-69
2023/10/30 00:18:19;;;;;;;0.20;0.20;;;;;;;6.52;100.00;99073.72;5009671;28;20030;-69
2023/10/30 00:20:45;;;;;;;0.10;0.10;;;;;;;6.74;100.00;99090.25;5010486;28;20037;-69
2023/10/30 00:23:10;;;;;;;0.32;0.20;;;;;;;6.87;100.00;99100.84;5010741;28;20684;-69
2023/10/30 00:25:36;;;;;;;2.75;0.15;;;;;;;6.65;100.00;99073.66;5009984;28;20036;-69
2023/10/30 00:28:02;;;;;;;2.25;0.20;;;;;;;6.88;100.00;99088.31;5025918;28;20126;-69
2023/10/30 00:30:27;;;;;;;0.10;0.10;;;;;;;6.70;100.00;99091.72;5010694;28;20401;-69
2023/10/30 00:32:52;;;;;;;0.10;0.10;;;;;;;6.59;100.00;99094.06;5012516;28;20034;-69
2023/10/30 00:35:18;;;;;;;0.82;0.20;;;;;;;6.76;100.00;99083.66;5029431;28;20489;-69
2023/10/30 00:37:43;;;;;;;0.22;0.10;;;;;;;6.79;100.00;99098.47;5028970;28;20034;-70
2023/10/30 00:40:10;;;;;;;0.10;0.10;;;;;;;6.67;100.00;99102.84;5012769;28;20052;-69
2023/10/30 00:42:35;;;;;;;0.35;0.10;;;;;;;6.76;100.00;99104.25;5013874;28;20030;-69
2023/10/30 00:45:04;;;;;;;0.20;0.20;;;;;;;6.95;100.00;99105.91;5012455;28;20374;-70
2023/10/30 00:47:29;;;;;;;1.17;0.20;;;;;;;6.96;100.00;99101.41;5013930;28;20139;-69
2023/10/30 00:49:55;;;;;;;0.20;0.17;;;;;;;6.95;100.00;99107.78;5012228;28;20049;-69
2023/10/30 00:52:20;;;;;;;0.20;0.10;;;;;;;6.74;100.00;99107.09;5012393;28;20128;-69
2023/10/30 00:54:45;;;;;;;0.25;0.10;;;;;;;6.61;100.00;99103.72;5013851;28;20033;-69
2023/10/30 00:57:11;;;;;;;0.20;0.20;;;;;;;6.75;100.00;99099.91;5012501;28;20523;-69
2023/10/30 00:59:37;;;;;;;0.22;0.20;;;;;;;6.53;100.00;99102.94;5013540;28;20322;-69
2023/10/30 01:02:02;;;;;;;0.30;0.20;;;;;;;6.73;100.00;99102.81;5013650;28;20033;-69
2023/10/30 01:04:28;;;;;;;1.58;0.20;;;;;;;6.85;100.00;99100.25;4994043;28;20076;-69
2023/10/30 01:06:54;;;;;;;0.60;0.20;;;;;;;6.69;100.00;99101.59;4992839;28;20045;-69
2023/10/30 01:09:19;;;;;;;0.38;0.20;;;;;;;6.71;100.00;99088.81;4976837;28;20145;-69
2023/10/30 01:11:45;;;;;;;0.55;0.15;;;;;;;6.80;100.00;99114.28;4992795;28;20397;-69
2023/10/30 01:14:10;;;;;;;0.38;0.10;;;;;;;6.65;100.00;99107.56;4994095;28;20529;-69
2023/10/30 01:16:36;;;;;;;2.85;0.52;;;;;;;6.76;100.00;99112.25;4994112;28;20398;-69
2023/10/30 01:19:01;;;;;;;1.00;0.30;;;;;;;6.85;100.00;99105.59;4992747;28;20037;-70
2023/10/30 01:21:27;;;;;;;0.40;0.30;;;;;;;6.84;100.00;99106.63;4994001;28;20153;-69
2023/10/30 01:23:52;;;;;;;1.08;0.30;;;;;;;6.83;100.00;99113.03;4992392;28;20069;-69
2023/10/30 01:26:18;;;;;;;1.52;0.20;;;;;;;6.88;100.00;99113.19;4993555;28;20034;-69
2023/10/30 01:28:43;;;;;;;0.80;0.30;;;;;;;7.00;100.00;99114.13;4993627;28;20436;-69
2023/10/30 01:31:08;;;;;;;0.68;0.30;;;;;;;6.64;100.00;99097.94;4978963;28;20039;-69
2023/10/30 01:33:34;;;;;;;0.90;0.20;;;;;;;6.87;100.00;99114.22;5010751;28;20026;-69
2023/10/30 01:35:59;;;;;;;1.08;0.30;;;;;;;7.01;100.00;99122.97;5001915;28;20030;-70
2023/10/30 01:38:25;;;;;;;0.20;0.20;;;;;;;7.01;100.00;99109.59;4992668;28;20026;-69
2023/10/30 01:40:51;;;;;;;0.35;0.20;;;;;;;6.99;100.00;99117.03;4993087;28;20030;-69
2023/10/30 01:43:27;;;;;;;2.92;0.40;;;;;;;7.09;100.00;99122.72;4991660;28;20030;-69
2023/10/30 01:45:52;;;;;;;0.13;0.13;;;;;;;6.69;100.00;99127.50;4993222;28;20470;-70
2023/10/30 01:48:18;;;;;;;0.80;0.30;;;;;;;6.93;100.00;99121.38;4995023;28;20038;-69
2023/10/30 01:50:44;;;;;;;0.85;0.30;;;;;;;7.06;100.00;99113.25;4977593;28;20030;-69
2023/10/30 01:53:10;;;;;;;0.57;0.20;;;;;;;7.14;100.00;99124.72;4993259;28;20453;-69
2023/10/30 01:55:37;;;;;;;0.40;0.30;;;;;;;7.07;100.00;99120.25;4992001;28;20034;-70
2023/10/30 01:58:03;;;;;;;1.17;0.30;;;;;;;7.26;100.00;99128.34;4992078;28;20030;-69
2023/10/30 02:00:29;;;;;;;0.65;0.30;;;;;;;7.05;100.00;99121.50;4996954;28;20049;-70
2023/10/30 02:02:56;;;;;;;0.20;0.20;;;;;;;7.11;100.00;99125.16;5027898;28;20493;-69
2023/10/30 02:05:22;;;;;;;0.47;0.32;;;;;;;7.09;100.00;99122.72;5012631;28;20037;-69
2023/10/30 02:07:48;;;;;;;0.60;0.40;;;;;;;7.05;100.00;99126.84;5012664;28;20504;-69
2023/10/30 02:10:13;;;;;;;1.95;0.40;;;;;;;6.93;100.00;99117.91;5012516;28;20124;-69
2023/10/30 02:12:42;;;;;;;2.92;0.47;;;;;;;6.92;100.00;99106.38;5027498;28;20034;-69
2023/10/30 02:15:08;;;;;;;0.75;0.30;;;;;;;7.02;100.00;99127.28;5010950;28;20555;-69
2023/10/30 02:17:34;;;;;;;0.65;0.40;;;;;;;7.14;100.00;99114.03;5012186;28;20030;-69
2023/10/30 02:20:00;;;;;;;1.33;0.40;;;;;;;7.33;100.00;99125.59;5027139;28;20022;-69
2023/10/30 02:22:25;;;;;;;0.38;0.20;;;;;;;7.25;100.00;99126.69;5012118;28;20540;-69
2023/10/30 02:24:51;;;;;;;1.73;0.50;;;;;;;7.14;100.00;99125.53;5010938;28;20113;-69
2023/10/30 02:27:17;;;;;;;1.42;0.50;;;;;;;7.16;100.00;99123.47;5012143;28;20401;-68
2023/10/30 02:29:43;;;;;;;0.63;0.40;;;;;;;6.93;100.00;99099.19;5021468;28;20018;-70
2023/10/30 02:32:09;;;;;;;1.40;0.40;;;;;;;6.93;100.00;99112.53;5027200;28;20029;-69
2023/10/30 02:34:34;;;;;;;0.93;0.40;;;;;;;6.94;100.00;99112.31;5017003;28;20025;-70
2023/10/30 02:37:00;;;;;;;1.45;0.30;;;;;;;6.87;100.00;99121.44;5026543;28;20101;-69
2023/10/30 02:39:32;;;;;;;0.70;0.52;;;;;;;7.12;100.00;99127.63;5011355;28;20048;-69
2023/10/30 02:42:01;;;;;;;0.80;0.40;;;;;;;6.97;100.00;99130.59;5010875;28;20026;-69
2023/10/30 02:44:28;;;;;;;3.63;0.52;;;;;;;6.91;100.00;99114.59;5012003;28;20493;-69
2023/10/30 02:46:54;;;;;;;2.47;0.60;;;;;;;7.25;100.00;99130.19;5011232;28;20037;-69
2023/10/30 02:49:19;;;;;;;0.80;0.45;;;;;;;7.04;100.00;99126.03;5010225;28;20513;-69
2023/10/30 02:51:45;;;;;;;0.50;0.50;;;;;;;7.25;100.00;99129.34;5011631;28;20775;-68
2023/10/30 02:54:10;;;;;;;0.95;0.40;;;;;;;7.22;100.00;99137.84;5009699;28;20022;-68
2023/10/30 02:56:36;;;;;;;0.70;0.50;;;;;;;7.22;100.00;99129.81;5025930;28;20037;-69
2023/10/30 02:59:01;;;;;;;0.85;0.63;;;;;;;7.05;100.00;99138.38;5010258;28;20065;-69
2023/10/30 03:01:26;;;;;;;0.55;0.50;;;;;;;7.33;100.00;99138.97;5011096;28;20086;-69
2023/10/30 03:03:52;;;;;;;0.50;0.43;;;;;;;7.35;100.00;99134.22;5010893;28;20464;-69
2023/10/30 03:06:17;;;;;;;0.57;0.47;;;;;;;7.45;100.00;99135.38;4993247;28;20556;-69
2023/10/30 03:08:43;;;;;;;0.45;0.40;;;;;;;7.33;100.00;99142.47;5010072;28;20465;-68
2023/10/30 03:11:08;;;;;;;0.70;0.50;;;;;;;7.56;100.00;99147.22;5010812;28;20401;-69
2023/10/30 03:13:34;;;;;;;1.52;0.60;;;;;;;7.27;100.00;99148.69;5026260;28;20034;-69
2023/10/30 03:15:59;;;;;;;1.02;0.40;;;;;;;7.04;100.00;99151.94;5011082;28;20034;-70
2023/10/30 03:18:25;;;;;;;3.00;0.40;;;;;;;7.46;100.00;99161.09;5006127;28;20042;-69
2023/10/30 03:20:50;;;;;;;0.50;0.40;;;;;;;7.50;100.00;99161.47;4990011;28;20792;-69
2023/10/30 03:23:15;;;;;;;1.75;0.40;;;;;;;7.36;100.00;99136.69;4989837;28;20081;-69
2023/10/30 03:25:42;;;;;;;1.48;0.50;;;;;;;7.45;100.00;99159.47;4990995;28;20454;-69
2023/10/30 03:28:07;;;;;;;0.30;0.30;;;;;;;7.46;100.00;99152.25;4991535;28;20572;-68
2023/10/30 03:30:36;;;;;;;1.52;0.40;;;;;;;7.38;100.00;99158.69;5006603;28;20061;-69
2023/10/30 03:33:05;;;;;;;0.65;0.40;;;;;;;7.29;100.00;99135.94;4991108;28;20030;-69
2023/10/30 03:35:31;;;;;;;1.95;0.30;;;;;;;7.58;100.00;99155.81;4991716;28;20052;-69
2023/10/30 03:37:56;;;;;;;0.30;0.30;;;;;;;7.70;100.00;99158.63;5000065;28;20085;-69
2023/10/30 03:40:22;;;;;;;0.68;0.35;;;;;;;7.61;100.00;99160.75;4994789;28;20061;-69
2023/10/30 03:42:47;;;;;;;0.35;0.30;;;;;;;7.46;100.00;99149.56;5022988;28;20398;-69
2023/10/30 03:45:13;;;;;;;0.30;0.20;;;;;;;7.53;100.00;99151.13;5006583;28;20619;-69
2023/10/30 03:47:40;;;;;;;0.30;0.30;;;;;;;7.51;100.00;99145.19;5009582;28;20041;-69
2023/10/30 03:50:08;;;;;;;0.50;0.30;;;;;;;7.47;100.00;99144.00;5010167;28;20405;-68
2023/10/30 03:52:33;;;;;;;0.30;0.30;;;;;;;7.49;100.00;99149.13;5009874;28;20026;-69
2023/10/30 03:55:03;;;;;;;0.30;0.30;;;;;;;7.56;100.00;99147.22;5010403;28;20037;-69
2023/10/30 03:57:31;;;;;;;0.98;0.50;;;;;;;7.64;100.00;99157.63;5025500;28;20523;-69
2023/10/30 03:59:57;;;;;;;2.55;0.50;;;;;;;7.54;100.00;99130.53;5010429;28;20037;-69
2023/10/30 04:02:22;;;;;;;0.65;0.50;;;;;;;7.43;100.00;99150.81;5010044;28;20030;-69
2023/10/30 04:04:48;;;;;;;2.85;0.82;;;;;;;7.53;100.00;99150.31;5009503;28;20026;-69
2023/10/30 04:07:13;;;;;;;1.40;1.00;;;;;;;7.38;100.00;99153.31;5009943;28;20033;-69
2023/10/30 04:09:39;;;;;;;2.30;1.40;;;;;;;7.52;100.00;99154.88;5014196;28;20080;-69
2023/10/30 04:12:04;;;;;;;3.25;1.30;;;;;;;7.51;100.00;99160.41;5014214;28;20026;-69
2023/10/30 04:14:30;;;;;;;2.00;1.25;;;;;;;7.46;100.00;99155.75;5029084;28;20129;-69
2023/10/30 04:16:57;;;;;;;2.65;1.50;;;;;;;7.65;100.00;99153.09;5014033;28;20064;-69
2023/10/30 04:19:22;;;;;;;2.33;1.73;;;;;;;7.55;100.00;99137.56;5013978;28;20040;-69
2023/10/30 04:21:48;;;;;;;3.80;1.58;;;;;;;7.64;100.00;99157.63;4996714;28;20041;-69
2023/10/30 04:24:13;;;;;;;2.67;1.75;;;;;;;7.45;100.00;99162.13;5013992;28;20394;-69
2023/10/30 04:26:39;;;;;;;5.55;1.50;;;;;;;7.41;100.00;99163.59;5013042;28;20072;-69
2023/10/30 04:29:04;;;;;;;4.63;1.42;;;;;;;7.59;100.00;99162.03;5014194;28;20034;-69
2023/10/30 04:31:29;;;;;;;2.17;1.05;;;;;;;7.66;100.00;99160.09;5011484;28;20103;-69
2023/10/30 04:33:55;;;;;;;3.85;1.00;;;;;;;7.67;100.00;99162.53;5013575;28;20489;-69
2023/10/30 04:36:20;;;;;;;2.35;0.80;;;;;;;7.66;100.00;99163.59;5029235;28;20484;-69
2023/10/30 04:38:46;;;;;;;2.72;0.75;;;;;;;7.59;100.00;99160.16;5013842;28;20064;-69
2023/10/30 04:41:11;;;;;;;0.73;0.60;;;;;;;7.70;100.00;99142.56;5013824;28;20556;-69
2023/10/30 04:43:37;;;;;;;0.93;0.60;;;;;;;7.88;100.00;99157.81;5013844;28;20034;-69
2023/10/30 04:46:03;;;;;;;0.88;0.50;;;;;;;7.64;100.00;99157.63;5028818;28;20060;-69
2023/10/30 04:48:31;;;;;;;0.70;0.60;;;;;;;7.73;100.00;99139.44;5028797;28;20049;-69
2023/10/30 04:50:57;;;;;;;0.40;0.38;;;;;;;7.66;100.00;99157.41;5028263;28;20026;-69
2023/10/30 04:53:22;;;;;;;0.93;0.47;;;;;;;7.71;100.00;99163.72;5013291;28;20428;-69
2023/10/30 04:55:51;;;;;;;0.47;0.40;;;;;;;7.84;100.00;99159.28;5012339;28;20057;-69
2023/10/30 04:58:17;;;;;;;0.57;0.35;;;;;;;7.81;100.00;99163.22;5013077;28;20026;-69
2023/10/30 05:00:43;;;;;;;1.85;0.50;;;;;;;7.80;100.00;99166.94;5013609;28;20370;-70
2023/10/30 05:03:11;;;;;;;0.80;0.50;;;;;;;7.89;100.00;99173.66;5013298;28;20038;-69
2023/10/30 05:05:37;;;;;;;0.93;0.60;;;;;;;7.84;100.00;99167.31;5011396;28;20057;-70
2023/10/30 05:08:03;;;;;;;2.65;0.70;;;;;;;7.62;100.00;99140.16;5012785;28;20057;-68
2023/10/30 05:10:28;;;;;;;1.42;0.70;;;;;;;7.87;100.00;99162.34;5012668;28;20128;-69
2023/10/30 05:12:54;;;;;;;1.10;0.40;;;;;;;7.87;100.00;99165.03;5012851;28;20042;-69
2023/10/30 05:15:21;;;;;;;1.50;0.55;;;;;;;7.81;100.00;99154.38;5014627;28;20033;-69
2023/10/30 05:17:46;;;;;;;1.15;0.63;;;;;;;8.04;100.00;99159.91;5013024;28;20110;-69
2023/10/30 05:20:12;;;;;;;1.35;0.55;;;;;;;7.93;100.00;99161.47;5010602;28;20113;-69
2023/10/30 05:22:38;;;;;;;0.65;0.60;;;;;;;7.99;100.00;99157.09;5012449;28;20481;-69
2023/10/30 05:25:05;;;;;;;0.80;0.65;;;;;;;8.20;100.00;99156.63;4995125;28;20045;-70
2023/10/30 05:27:31;;;;;;;2.92;0.77;;;;;;;8.26;100.00;99154.09;5011255;28;20535;-68
2023/10/30 05:29:56;;;;;;;0.98;0.80;;;;;;;8.12;100.00;99158.81;5012877;28;20066;-69
2023/10/30 05:32:22;;;;;;;9.05;1.13;;;;;;;8.24;100.00;99163.19;5013241;28;20045;-69
2023/10/30 05:34:48;;;;;;;2.50;0.90;;;;;;;8.09;100.00;99165.41;5012246;28;20022;-67
2023/10/30 05:37:14;;;;;;;1.35;0.80;;;;;;;8.16;100.00;99162.66;5006190;28;20033;-68
2023/10/30 05:39:40;;;;;;;1.83;0.80;;;;;;;8.23;100.00;99171.44;5006094;28;20022;-69
2023/10/30 05:42:05;;;;;;;3.25;0.77;;;;;;;8.31;100.00;99168.47;5004638;28;20030;-68
2023/10/30 05:44:31;;;;;;;3.65;0.80;;;;;;;8.26;100.00;99154.91;5006801;28;20550;-68
2023/10/30 05:46:57;;;;;;;0.93;0.80;;;;;;;8.32;100.00;99172.78;5006142;28;20048;-68
2023/10/30 05:49:24;;;;;;;1.65;1.23;;;;;;;8.26;100.00;99162.97;5005897;28;20129;-68
2023/10/30 05:51:49;;;;;;;2.92;1.42;;;;;;;8.32;100.00;99164.75;5006556;28;20036;-68
2023/10/30 05:54:15;;;;;;;3.30;1.17;;;;;;;8.26;100.00;99175.53;5007744;28;20037;-68
2023/10/30 05:56:40;;;;;;;1.52;1.35;;;;;;;8.26;100.00;99187.06;5022397;28;20507;-68
2023/10/30 05:59:06;;;;;;;6.35;1.48;;;;;;;8.35;100.00;99188.41;5013004;28;20057;-68
2023/10/30 06:01:31;;;;;;;2.67;1.33;;;;;;;8.32;100.00;99180.81;5008351;28;20499;-68
2023/10/30 06:03:56;;;;;;;2.00;1.30;;;;;;;8.36;100.00;99187.38;5006289;28;20140;-69
2023/10/30 06:06:22;;;;;;;2.22;1.42;;;;;;;8.36;100.00;99186.56;5006165;28;20481;-68
2023/10/30 06:08:47;;;;;;;4.47;1.40;;;;;;;8.35;100.00;99177.69;5004738;28;20481;-69
2023/10/30 06:11:13;;;;;;;8.20;1.63;;;;;;;8.39;100.00;99183.47;5005431;28;20120;-68
2023/10/30 06:13:38;;;;;;;2.38;1.60;;;;;;;8.45;100.00;99185.25;5023246;28;20029;-68
2023/10/30 06:16:04;;;;;;;6.20;1.67;;;;;;;8.51;100.00;99178.16;5024418;28;20374;-68
2023/10/30 06:18:29;;;;;;;3.90;1.92;;;;;;;8.39;100.00;99184.28;5010352;28;20107;-68
2023/10/30 06:20:56;;;;;;;7.03;2.22;;;;;;;8.51;100.00;99180.81;5008518;28;20057;-68
2023/10/30 06:23:21;;;;;;;8.25;3.10;;;;;;;8.55;100.00;99177.50;5009014;28;20448;-68
2023/10/30 06:25:47;;;;;;;6.97;2.53;;;;;;;8.53;100.00;99186.78;5023750;28;20065;-68
2023/10/30 06:28:14;;;;;;;5.18;2.42;;;;;;;8.55;100.00;99179.34;5007227;28;20497;-68
2023/10/30 06:30:41;;;;;;;3.80;2.47;;;;;;;8.50;100.00;99187.25;5022699;28;20049;-69
2023/10/30 06:33:06;;;;;;;6.05;2.53;;;;;;;8.68;100.00;99195.28;5006789;28;20120;-69
2023/10/30 06:35:32;;;;;;;5.22;2.38;;;;;;;8.57;100.00;99193.34;5007018;28;20064;-69
2023/10/30 06:37:57;;;;;;;4.63;2.67;;;;;;;8.62;100.00;99198.84;5008267;28;20041;-69
2023/10/30 06:40:22;;;;;;;9.93;2.53;;;;;;;8.62;100.00;99196.97;5008551;28;20509;-68
2023/10/30 06:42:48;;;;;;;6.95;2.40;;;;;;;8.49;100.00;99197.16;5008857;28;20128;-69
2023/10/30 06:45:13;;;;;;;8.88;2.80;;;;;;;8.36;100.00;99205.31;5024072;28;20061;-68
2023/10/30 06:47:39;;;;;;;4.10;2.88;;;;;;;8.54;100.00;99199.13;5007517;28;20038;-68
2023/10/30 06:50:04;;;;;;;10.80;3.20;;;;;;;8.67;100.00;99204.34;5021944;28;20077;-70
2023/10/30 06:52:30;;;;;;;12.10;3.55;;;;;;;8.70;100.00;99207.38;5007568;28;20046;-68
2023/10/30 06:54:55;;;;;;;8.45;3.60;;;;;;;8.78;100.00;99200.91;5010428;28;20069;-68
2023/10/30 06:57:21;;;;;;;8.65;3.15;;;;;;;8.75;100.00;99190.63;5006608;28;20057;-69
2023/10/30 06:59:46;;;;;;;8.48;3.30;;;;;;;8.72;100.00;99209.84;5007693;28;20453;-69
2023/10/30 07:02:12;;;;;;;8.95;3.17;;;;;;;8.78;100.00;99192.06;5007654;28;20034;-69
2023/10/30 07:04:37;;;;;;;6.80;3.53;;;;;;;8.97;100.00;99208.91;5024581;28;20072;-69
2023/10/30 07:07:03;;;;;;;10.50;3.58;;;;;;;9.10;100.00;99216.75;5006374;28;20108;-68
2023/10/30 07:09:28;;;;;;;6.90;3.50;;;;;;;8.99;100.00;99190.72;5008968;28;20038;-69
2023/10/30 07:11:54;;;;;;;8.60;3.42;;;;;;;9.13;100.00;99210.94;5006592;28;20036;-69
2023/10/30 07:14:19;;;;;;;6.15;3.50;;;;;;;9.15;100.00;99200.81;4991313;28;20045;-69
2023/10/30 07:16:45;;;;;;;9.60;3.70;;;;;;;9.23;100.00;99218.44;5005648;28;20030;-70
2023/10/30 07:19:10;;;;;;;6.70;3.83;;;;;;;9.29;100.00;99214.84;5009772;28;20029;-68
2023/10/30 07:21:35;;;;;;;7.75;4.00;;;;;;;9.25;100.00;99210.97;5006161;28;20034;-68
2023/10/30 07:24:01;;;;;;;9.88;4.25;;;;;;;9.32;100.00;99217.06;5007398;28;20034;-70
2023/10/30 07:26:26;;;;;;;12.27;4.10;;;;;;;9.45;100.00;99219.56;5022368;28;20021;-68
2023/10/30 07:28:52;;;;;;;9.75;4.60;;;;;;;9.50;100.00;99216.97;5022320;28;20042;-69
2023/10/30 07:31:18;;;;;;;9.00;4.18;;;;;;;9.53;100.00;99223.75;5021065;28;20030;-69
2023/10/30 07:33:49;;;;;;;9.57;4.35;;;;;;;9.57;100.00;99224.91;5025845;28;20025;-69
2023/10/30 07:36:14;;;;;;;12.32;4.70;;;;;;;9.63;100.00;99226.69;5010707;28;20037;-69
2023/10/30 07:38:40;;;;;;;7.65;4.95;;;;;;;9.51;100.00;99201.72;4992245;28;20034;-69
2023/10/30 07:41:07;;;;;;;13.57;5.07;;;;;;;9.76;100.00;99225.66;5008089;28;20033;-68
2023/10/30 07:43:33;;;;;;;8.88;4.97;;;;;;;9.87;100.00;99232.91;5012855;28;20049;-69
2023/10/30 07:45:58;;;;;;;11.93;4.85;;;;;;;9.97;100.00;99233.16;5013402;28;20030;-68
2023/10/30 07:48:26;;;;;;;12.50;5.60;;;;;;;10.04;100.00;99230.34;5016896;28;20090;-68
2023/10/30 07:50:52;;;;;;;10.95;5.10;;;;;;;10.05;100.00;99245.41;5010650;28;20030;-69
2023/10/30 07:53:18;;;;;;;11.50;5.47;;;;;;;10.04;100.00;99215.03;5014002;28;20485;-68
2023/10/30 07:55:45;;;;;;;13.93;5.32;;;;;;;10.23;100.00;99234.56;5029770;28;20132;-68
2023/10/30 07:58:12;;;;;;;12.15;5.38;;;;;;;10.23;100.00;99229.19;5012971;28;20064;-68
2023/10/30 08:00:39;;;;;;;14.73;5.53;;;;;;;10.24;100.00;99241.56;5012502;28;20029;-69
2023/10/30 08:03:05;;;;;;;14.10;5.40;;;;;;;10.23;100.00;99215.72;5015460;28;20388;-68
2023/10/30 08:05:32;;;;;;;9.50;5.43;;;;;;;10.41;100.00;99230.91;5019569;28;20029;-68
2023/10/30 08:07:57;;;;;;;12.00;5.82;;;;;;;10.52;100.00;99234.63;5014639;28;20022;-70
2023/10/30 08:10:23;;;;;;;14.82;5.35;;;;;;;10.60;100.00;99231.59;5013952;28;20060;-69
2023/10/30 08:12:48;;;;;;;14.82;5.72;;;;;;;10.68;100.00;99227.69;5013951;28;20397;-69
2023/10/30 08:15:14;;;;;;;15.85;5.63;;;;;;;10.85;100.00;99233.16;5033138;28;20048;-68
2023/10/30 08:17:39;;;;;;;12.68;5.55;;;;;;;10.91;100.00;99242.97;5027764;28;20022;-68
2023/10/30 08:20:05;;;;;;;13.70;5.07;;;;;;;10.98;100.00;99235.56;5014198;28;20032;-68
2023/10/30 08:22:32;;;;;;;16.92;5.07;;;;;;;11.11;100.00;99240.66;5013021;28;20091;-68
2023/10/30 08:24:59;;;;;;;14.63;5.13;;;;;;;11.16;100.00;99230.00;5020567;28;20021;-68
2023/10/30 08:27:24;;;;;;;15.52;5.50;;;;;;;11.25;100.00;99233.09;5034154;28;20033;-68
2023/10/30 08:29:50;;;;;;;14.07;5.22;;;;;;;11.30;100.00;99235.88;5032163;28;20033;-68
2023/10/30 08:32:15;;;;;;;17.02;5.20;;;;;;;11.32;100.00;99233.75;5014029;28;20401;-69
2023/10/30 08:34:41;;;;;;;20.10;5.28;;;;;;;11.42;100.00;99225.03;5013365;28;20040;-68
2023/10/30 08:37:06;;;;;;;21.52;6.18;;;;;;;11.57;100.00;99233.38;5018956;28;20059;-68
2023/10/30 08:39:32;;;;;;;22.25;5.13;;;;;;;11.68;100.00;99229.78;5032058;28;20084;-68
2023/10/30 08:41:57;;;;;;;14.27;5.03;;;;;;;11.68;100.00;99224.41;5028851;28;20023;-68
2023/10/30 08:44:24;;;;;;;11.65;4.70;;;;;;;11.83;100.00;99236.50;5017912;28;20607;-68
2023/10/30 08:46:51;;;;;;;14.43;4.60;;;;;;;11.96;100.00;99242.41;5028992;28;20034;-68
2023/10/30 08:49:16;;;;;;;17.95;4.68;;;;;;;11.97;100.00;99227.84;5013186;28;20505;-68
2023/10/30 08:51:43;;;;;;;27.23;4.90;;;;;;;12.17;100.00;99240.81;5028924;28;20044;-68
2023/10/30 08:54:10;;;;;;;19.70;4.68;;;;;;;12.30;100.00;99246.94;5008978;28;20046;-68
2023/10/30 08:56:39;;;;;;;15.18;4.20;;;;;;;12.41;100.00;99238.72;5011830;28;20033;-68
2023/10/30 08:59:05;;;;;;;17.02;4.05;;;;;;;12.51;100.00;99238.03;5013232;28;20036;-68
2023/10/30 09:01:31;;;;;;;18.73;4.20;;;;;;;12.61;100.00;99242.75;5012428;28;20101;-68
2023/10/30 09:03:57;;;;;;;17.83;3.70;;;;;;;12.69;100.00;99226.94;5012333;28;20148;-68
2023/10/30 09:06:22;;;;;;;31.08;4.03;;;;;;;12.79;100.00;99228.94;5031343;28;20030;-68
2023/10/30 09:08:48;;;;;;;19.92;4.47;;;;;;;12.99;100.00;99236.47;5013243;28;20034;-68
2023/10/30 09:11:13;;;;;;;20.60;3.55;;;;;;;13.09;100.00;99241.16;5015292;28;20022;-68
2023/10/30 09:13:39;;;;;;;21.25;3.40;;;;;;;13.16;100.00;99239.06;5024023;28;20543;-67
2023/10/30 09:16:05;;;;;;;15.02;2.80;;;;;;;13.23;100.00;99244.25;5019739;28;20112;-68
2023/10/30 09:18:30;;;;;;;28.45;4.25;;;;;;;13.33;100.00;99236.28;5037200;28;20022;-68
2023/10/30 09:20:55;;;;;;;21.00;3.10;;;;;;;13.45;100.00;99241.56;5022343;28;20021;-68
2023/10/30 09:23:21;;;;;;;30.70;3.95;;;;;;;13.59;100.00;99243.56;5015535;28;20037;-68
2023/10/30 09:25:46;;;;;;;20.25;3.35;;;;;;;13.66;100.00;99245.25;5029649;28;20059;-68
2023/10/30 09:28:11;;;;;;;24.38;4.05;;;;;;;13.71;100.00;99253.38;5033322;28;20092;-68
2023/10/30 09:30:37;;;;;;;20.83;3.67;;;;;;;13.73;100.00;99243.13;5031583;28;20057;-68
2023/10/30 09:33:03;;;;;;;24.95;3.38;;;;;;;13.70;100.00;99251.75;5032910;28;20495;-68
2023/10/30 09:35:32;;;;;;;26.42;3.63;;;;;;;13.68;100.00;99257.44;5033177;28;20035;-68
2023/10/30 09:37:58;;;;;;;28.75;4.07;;;;;;;13.51;100.00;99246.75;5031028;28;20732;-68
2023/10/30 09:40:27;;;;;;;30.77;3.95;;;;;;;13.54;100.00;99267.00;5013158;28;20108;-68
2023/10/30 09:42:54;;;;;;;30.35;4.13;;;;;;;13.64;100.00;99250.88;5011756;28;20457;-68
2023/10/30 09:45:24;;;;;;;32.67;4.32;;;;;;;13.78;100.00;99251.28;5027807;28;20037;-68
2023/10/30 09:47:54;;;;;;;27.67;3.40;;;;;;;13.93;100.00;99258.69;5011934;28;20122;-68
2023/10/30 09:50:21;;;;;;;31.88;3.90;;;;;;;13.99;100.00;99239.53;5011236;28;20089;-68
2023/10/30 09:52:57;;;;;;;32.67;4.35;;;;;;;14.10;100.00;99249.38;5011379;28;20045;-68
2023/10/30 09:55:23;;;;;;;36.70;4.13;;;;;;;14.06;100.00;99248.25;5011289;28;20445;-68
2023/10/30 09:57:51;;;;;;;34.38;4.13;;;;;;;14.18;100.00;99244.56;5010771;28;20056;-68
2023/10/30 10:00:18;;;;;;;31.23;3.80;;;;;;;14.22;100.00;99256.47;5012508;28;20026;-68
2023/10/30 10:02:44;;;;;;;34.80;5.00;;;;;;;14.13;100.00;99252.63;5012200;28;20392;-69
2023/10/30 10:05:11;;;;;;;32.33;4.60;;;;;;;14.22;100.00;99254.56;5011697;28;20018;-69
2023/10/30 10:07:36;;;;;;;38.85;4.57;;;;;;;14.43;100.00;99252.00;5027876;28;20036;-69
2023/10/30 10:10:03;;;;;;;34.45;3.78;;;;;;;14.57;100.00;99247.78;5011971;28;20026;-68
2023/10/30 10:12:30;;;;;;;31.92;4.70;;;;;;;14.65;100.00;99251.88;5011251;28;20485;-69
2023/10/30 10:14:56;;;;;;;41.70;4.78;;;;;;;14.62;100.00;99257.81;5012237;28;20026;-69
2023/10/30 10:17:21;;;;;;;33.13;4.50;;;;;;;14.63;100.00;99254.00;5012475;28;20036;-68
2023/10/30 10:19:48;;;;;;;34.72;4.50;;;;;;;14.56;100.00;99260.47;5027693;28;20129;-69
2023/10/30 10:22:29;;;;;;;39.50;4.07;;;;;;;14.64;100.00;99252.97;5012795;28;20022;-68
2023/10/30 10:24:55;;;;;;;31.85;3.90;;;;;;;14.63;100.00;99259.44;5011316;28;20025;-69
2023/10/30 10:27:25;;;;;;;32.70;4.40;;;;;;;14.63;100.00;99256.72;5027401;28;20044;-69
2023/10/30 10:29:53;;;;;;;29.52;3.90;;;;;;;14.70;100.00;99255.41;5027157;28;20129;-68
2023/10/30 10:32:19;;;;;;;36.90;4.97;;;;;;;14.69;100.00;99250.25;5027127;28;20037;-69
2023/10/30 10:34:48;;;;;;;28.85;4.35;;;;;;;14.58;100.00;99238.56;5010720;28;20022;-68
2023/10/30 10:37:19;;;;;;;35.30;3.88;;;;;;;14.75;100.00;99260.03;5011746;28;20056;-69
2023/10/30 10:39:46;;;;;;;35.22;4.35;;;;;;;14.75;100.00;99236.47;5011607;28;20053;-68
2023/10/30 10:42:14;;;;;;;31.42;4.38;;;;;;;14.86;100.00;99245.44;5011311;28;20550;-69
2023/10/30 10:44:39;;;;;;;32.20;4.47;;;;;;;14.86;100.00;99247.34;5022818;28;20152;-69
2023/10/30 10:47:05;;;;;;;43.60;5.60;;;;;;;14.74;100.00;99247.59;5010761;28;20097;-69
2023/10/30 10:49:30;;;;;;;33.05;4.13;;;;;;;14.77;100.00;99238.94;5010924;28;20515;-69
2023/10/30 10:51:57;;;;;;;35.17;4.20;;;;;;;14.78;100.00;99244.06;5011267;28;20038;-69
2023/10/30 10:54:27;;;;;;;37.78;4.45;;;;;;;14.75;100.00;99238.38;5010354;28;20021;-69
2023/10/30 10:56:53;;;;;;;35.85;4.40;;;;;;;14.82;100.00;99243.53;5026693;28;20393;-68
2023/10/30 10:59:24;;;;;;;34.50;4.50;;;;;;;14.77;100.00;99244.34;5010256;28;20045;-69
2023/10/30 11:01:55;;;;;;;32.90;4.68;;;;;;;14.80;100.00;99243.78;5011500;28;20025;-69
2023/10/30 11:04:21;;;;;;;30.27;4.13;;;;;;;14.77;100.00;99238.94;5026359;28;20034;-68
2023/10/30 11:06:52;;;;;;;29.52;4.68;;;;;;;14.72;100.00;99228.88;5010961;28;20033;-68
2023/10/30 11:09:29;;;;;;;31.95;4.60;;;;;;;14.79;100.00;99228.63;5011462;28;20576;-69
2023/10/30 11:11:57;;;;;;;41.47;5.03;;;;;;;14.78;100.00;99244.06;5011472;28;20118;-68
2023/10/30 11:14:38;;;;;;;37.08;4.60;;;;;;;14.82;100.00;99243.53;5011178;28;20068;-69
2023/10/30 11:17:05;;;;;;;35.88;4.90;;;;;;;14.79;100.00;99245.69;5010169;28;20065;-68
2023/10/30 11:19:32;;;;;;;35.38;4.63;;;;;;;14.87;100.00;99246.28;5011689;28;20061;-69
2023/10/30 11:21:59;;;;;;;30.75;4.53;;;;;;;14.90;100.00;99241.16;5011072;28;20428;-69
2023/10/30 11:24:54;;;;;;;29.73;4.53;;;;;;;15.11;100.00;99230.38;5011779;28;20040;-69